createdAt,value
2022-12-15T00:02:19.664Z,-9.00
2022-12-15T00:05:05.462Z,-9.00
2022-12-15T00:07:50.723Z,-9.00
2022-12-15T00:10:36.602Z,-9.00
2022-12-15T00:13:28.599Z,-9.10
2022-12-15T00:16:14.651Z,-9.10
2022-12-15T00:18:59.993Z,-9.10
2022-12-15T00:21:45.684Z,-9.10
2022-12-15T00:24:30.992Z,-9.10
2022-12-15T00:27:16.439Z,-9.20
2022-12-15T00:30:02.162Z,-9.10
2022-12-15T00:32:47.657Z,-9.20
2022-12-15T00:35:33.086Z,-9.20
2022-12-15T00:38:25.667Z,-9.20
2022-12-15T00:40:58.930Z,-9.20
2022-12-15T00:43:33.027Z,-9.20
2022-12-15T00:46:19.290Z,-9.30
2022-12-15T00:48:47.367Z,-9.20
2022-12-15T00:51:15.526Z,-9.20
2022-12-15T00:54:01.786Z,-9.20
2022-12-15T00:56:48.120Z,-9.20
2022-12-15T00:59:34.105Z,-9.20
2022-12-15T01:02:20.825Z,-9.30
2022-12-15T01:05:07.031Z,-9.30
2022-12-15T01:07:52.551Z,-9.30
2022-12-15T01:10:38.002Z,-9.30
2022-12-15T01:13:24.263Z,-9.40
2022-12-15T01:16:09.693Z,-9.40
2022-12-15T01:18:55.383Z,-9.40
2022-12-15T01:21:24.889Z,-9.50
2022-12-15T01:23:53.044Z,-9.60
2022-12-15T01:26:20.311Z,-9.50
2022-12-15T01:28:47.188Z,-9.50
2022-12-15T01:31:14.621Z,-9.50
2022-12-15T01:33:43.578Z,-9.50
2022-12-15T01:36:11.496Z,-9.50
2022-12-15T01:38:38.419Z,-9.60
2022-12-15T01:41:10.357Z,-9.60
2022-12-15T01:43:39.661Z,-9.60
2022-12-15T01:46:15.856Z,-9.60
2022-12-15T01:48:51.196Z,-9.60
2022-12-15T01:51:34.277Z,-9.70
2022-12-15T01:54:09.962Z,-9.60
2022-12-15T01:56:46.185Z,-9.70
2022-12-15T01:59:19.681Z,-9.70
2022-12-15T02:01:50.055Z,-9.70
2022-12-15T02:04:20.683Z,-9.70
2022-12-15T02:06:47.546Z,-9.70
2022-12-15T02:09:15.183Z,-9.80
2022-12-15T02:12:02.366Z,-9.80
2022-12-15T02:14:44.639Z,-9.80
2022-12-15T02:17:25.929Z,-9.80
2022-12-15T02:20:13.459Z,-10.00
2022-12-15T02:23:11.468Z,-9.90
2022-12-15T02:25:54.497Z,-9.80
2022-12-15T02:28:39.846Z,-9.90
2022-12-15T02:31:50.597Z,-9.90
2022-12-15T02:34:43.235Z,-9.90
2022-12-15T02:37:22.581Z,-10.00
2022-12-15T02:39:49.649Z,-9.90
2022-12-15T02:42:16.478Z,-9.90
2022-12-15T02:44:59.944Z,-9.80
2022-12-15T02:47:37.695Z,-9.80
2022-12-15T02:50:16.630Z,-9.80
2022-12-15T02:52:52.708Z,-9.80
2022-12-15T02:55:37.762Z,-9.80
2022-12-15T02:58:12.318Z,-9.90
2022-12-15T03:00:42.824Z,-9.90
2022-12-15T03:03:11.002Z,-9.90
2022-12-15T03:05:37.849Z,-9.90
2022-12-15T03:08:04.910Z,-10.00
2022-12-15T03:10:31.752Z,-10.00
2022-12-15T03:12:59.026Z,-9.90
2022-12-15T03:15:28.052Z,-10.00
2022-12-15T03:17:58.799Z,-10.00
2022-12-15T03:20:25.628Z,-9.90
2022-12-15T03:22:52.439Z,-9.90
2022-12-15T03:25:19.207Z,-9.90
2022-12-15T03:27:46.334Z,-9.80
2022-12-15T03:30:13.899Z,-9.80
2022-12-15T03:32:41.197Z,-9.80
2022-12-15T03:35:08.600Z,-9.80
2022-12-15T03:37:35.406Z,-9.90
2022-12-15T03:40:02.183Z,-9.90
2022-12-15T03:42:55.336Z,-9.90
2022-12-15T03:45:24.369Z,-9.90
2022-12-15T03:47:51.421Z,-9.90
2022-12-15T03:50:21.736Z,-10.00
2022-12-15T03:52:53.909Z,-10.00
2022-12-15T03:55:21.568Z,-10.00
2022-12-15T03:57:49.211Z,-10.10
2022-12-15T04:00:16.671Z,-10.20
2022-12-15T04:02:43.691Z,-10.10
2022-12-15T04:05:17.504Z,-10.20
2022-12-15T04:07:44.286Z,-10.20
2022-12-15T04:10:12.053Z,-10.10
2022-12-15T04:12:42.084Z,-10.00
2022-12-15T04:15:10.587Z,-10.00
2022-12-15T04:17:37.630Z,-10.00
2022-12-15T04:20:11.292Z,-9.90
2022-12-15T04:22:44.390Z,-9.80
2022-12-15T04:25:36.306Z,-9.70
2022-12-15T04:28:22.234Z,-9.60
2022-12-15T04:31:20.831Z,-9.60
2022-12-15T04:34:11.783Z,-9.50
2022-12-15T04:36:58.627Z,-9.50
2022-12-15T04:39:44.132Z,-9.40
2022-12-15T04:42:29.540Z,-9.40
2022-12-15T04:45:21.098Z,-9.40
2022-12-15T04:48:07.057Z,-9.30
2022-12-15T04:50:52.849Z,-9.30
2022-12-15T04:53:39.409Z,-9.30
2022-12-15T04:56:29.934Z,-9.30
2022-12-15T04:59:15.626Z,-9.20
2022-12-15T05:02:01.271Z,-9.30
2022-12-15T05:04:46.694Z,-9.20
2022-12-15T05:07:32.574Z,-9.20
2022-12-15T05:10:18.260Z,-9.30
2022-12-15T05:13:03.478Z,-9.30
2022-12-15T05:15:50.727Z,-9.30
2022-12-15T05:18:36.299Z,-9.40
2022-12-15T05:21:21.807Z,-9.20
2022-12-15T05:24:07.393Z,-9.20
2022-12-15T05:26:53.449Z,-9.30
2022-12-15T05:29:40.121Z,-9.10
2022-12-15T05:32:08.271Z,-9.20
2022-12-15T05:34:36.546Z,-9.30
2022-12-15T05:37:05.335Z,-9.20
2022-12-15T05:39:32.666Z,-9.40
2022-12-15T05:41:59.495Z,-9.40
2022-12-15T05:44:26.848Z,-9.50
2022-12-15T05:46:53.791Z,-9.50
2022-12-15T05:49:23.218Z,-9.50
2022-12-15T05:51:50.049Z,-9.50
2022-12-15T05:54:18.941Z,-9.50
2022-12-15T05:56:46.813Z,-9.50
2022-12-15T05:59:17.804Z,-9.60
2022-12-15T06:01:44.958Z,-9.60
2022-12-15T06:04:12.983Z,-9.60
2022-12-15T06:06:40.381Z,-9.50
2022-12-15T06:09:07.633Z,-9.50
2022-12-15T06:11:34.686Z,-9.50
2022-12-15T06:14:01.685Z,-9.50
2022-12-15T06:16:28.673Z,-9.50
2022-12-15T06:18:58.708Z,-9.60
2022-12-15T06:21:32.010Z,-9.60
2022-12-15T06:23:58.949Z,-9.70
2022-12-15T06:26:30.510Z,-9.60
2022-12-15T06:28:59.383Z,-9.70
2022-12-15T06:31:26.783Z,-9.70
2022-12-15T06:34:00.908Z,-9.70
2022-12-15T06:36:28.938Z,-9.80
2022-12-15T06:39:02.653Z,-9.80
2022-12-15T06:41:30.663Z,-9.80
2022-12-15T06:43:58.265Z,-9.90
2022-12-15T06:46:27.892Z,-9.90
2022-12-15T06:48:54.969Z,-9.80
2022-12-15T06:51:22.102Z,-9.80
2022-12-15T06:53:49.121Z,-9.80
2022-12-15T06:56:24.451Z,-10.00
2022-12-15T06:58:55.867Z,-9.90
2022-12-15T07:01:24.882Z,-10.00
2022-12-15T07:03:53.327Z,-10.00
2022-12-15T07:06:20.693Z,-10.10
2022-12-15T07:08:52.815Z,-10.00
2022-12-15T07:11:21.106Z,-10.10
2022-12-15T07:13:54.542Z,-10.10
2022-12-15T07:16:22.901Z,-10.10
2022-12-15T07:18:50.369Z,-10.10
2022-12-15T07:21:17.524Z,-10.10
2022-12-15T07:24:00.930Z,-10.10
2022-12-15T07:26:28.660Z,-10.00
2022-12-15T07:28:56.061Z,-10.00
2022-12-15T07:31:23.428Z,-10.10
2022-12-15T07:33:52.270Z,-10.00
2022-12-15T07:36:19.646Z,-10.00
2022-12-15T07:38:50.278Z,-9.90
2022-12-15T07:41:19.177Z,-10.00
2022-12-15T07:43:46.999Z,-9.90
2022-12-15T07:46:14.069Z,-9.80
2022-12-15T07:48:40.887Z,-9.80
2022-12-15T07:51:15.272Z,-9.90
2022-12-15T07:53:44.248Z,-9.90
2022-12-15T07:56:11.160Z,-9.80
2022-12-15T07:58:38.721Z,-9.80
2022-12-15T08:01:08.227Z,-9.70
2022-12-15T08:03:37.534Z,-9.70
2022-12-15T08:06:10.302Z,-9.60
2022-12-15T08:08:37.400Z,-9.50
2022-12-15T08:11:09.055Z,-9.50
2022-12-15T08:16:24.249Z,-9.60
2022-12-15T08:18:51.103Z,-9.50
2022-12-15T08:21:18.094Z,-9.40
2022-12-15T08:23:45.186Z,-9.40
2022-12-15T08:26:15.079Z,-9.20
2022-12-15T08:28:43.001Z,-9.20
2022-12-15T08:31:12.724Z,-9.20
2022-12-15T08:33:40.387Z,-9.10
2022-12-15T08:36:09.676Z,-9.10
2022-12-15T08:38:38.709Z,-9.10
2022-12-15T08:41:11.363Z,-9.00
2022-12-15T08:43:43.988Z,-9.00
2022-12-15T08:46:14.647Z,-8.90
2022-12-15T08:48:41.568Z,-8.80
2022-12-15T08:51:09.745Z,-8.90
2022-12-15T08:53:36.969Z,-8.80
2022-12-15T08:56:06.461Z,-8.60
2022-12-15T08:58:33.846Z,-8.60
2022-12-15T09:01:23.998Z,-8.50
2022-12-15T09:03:55.732Z,-8.40
2022-12-15T09:06:28.751Z,-8.20
2022-12-15T09:09:01.069Z,-8.00
2022-12-15T09:11:29.767Z,-7.90
2022-12-15T09:13:56.880Z,-7.80
2022-12-15T09:16:23.839Z,-7.70
2022-12-15T09:18:53.205Z,-7.60
2022-12-15T09:21:26.183Z,-7.40
2022-12-15T09:23:55.596Z,-7.40
2022-12-15T09:26:23.804Z,-7.20
2022-12-15T09:28:51.159Z,-7.20
2022-12-15T09:31:28.327Z,-7.00
2022-12-15T09:33:57.335Z,-6.70
2022-12-15T09:36:24.781Z,-6.90
2022-12-15T09:38:51.992Z,-6.70
2022-12-15T09:41:23.647Z,-6.60
2022-12-15T09:44:08.983Z,-6.70
2022-12-15T09:46:50.580Z,-6.40
2022-12-15T09:49:29.850Z,-6.10
2022-12-15T09:52:10.744Z,-6.00
2022-12-15T09:54:38.882Z,-5.90
2022-12-15T09:57:12.965Z,-5.70
2022-12-15T10:00:06.190Z,-5.70
2022-12-15T10:03:11.013Z,-5.90
2022-12-15T10:08:56.278Z,-5.70
2022-12-15T10:11:52.434Z,-5.40
2022-12-15T10:14:44.327Z,-5.70
2022-12-15T10:17:25.047Z,-5.70
2022-12-15T10:20:05.366Z,-5.60
2022-12-15T10:22:36.707Z,-5.80
2022-12-15T10:25:15.794Z,-5.60
2022-12-15T10:27:46.429Z,-5.40
2022-12-15T10:30:16.838Z,-5.10
2022-12-15T10:33:21.696Z,-5.00
2022-12-15T10:35:50.675Z,-5.10
2022-12-15T10:38:41.354Z,-5.00
2022-12-15T10:41:11.884Z,-4.90
2022-12-15T10:43:41.930Z,-5.00
2022-12-15T10:46:15.961Z,-5.00
2022-12-15T10:48:44.646Z,-4.90
2022-12-15T10:51:24.489Z,-4.60
2022-12-15T10:56:56.374Z,-4.40
2022-12-15T10:59:26.337Z,-4.50
2022-12-15T11:01:53.516Z,-4.60
2022-12-15T11:04:31.964Z,-4.80
2022-12-15T11:07:01.228Z,-4.80
2022-12-15T11:09:39.185Z,-4.80
2022-12-15T11:12:39.094Z,-4.70
2022-12-15T11:15:45.859Z,-4.70
2022-12-15T11:18:17.742Z,-4.40
2022-12-15T11:20:51.090Z,-4.20
2022-12-15T11:23:32.416Z,-4.20
2022-12-15T11:26:07.292Z,-4.20
2022-12-15T11:28:44.136Z,-4.00
2022-12-15T11:31:32.079Z,-3.70
2022-12-15T11:33:58.992Z,-3.40
2022-12-15T11:36:49.644Z,-3.30
2022-12-15T11:39:36.269Z,-3.40
2022-12-15T11:42:43.537Z,-3.40
2022-12-15T11:45:32.939Z,-3.30
2022-12-15T11:48:12.140Z,-3.50
2022-12-15T11:50:47.933Z,-3.60
2022-12-15T11:53:36.781Z,-3.60
2022-12-15T11:56:31.352Z,-3.60
2022-12-15T11:59:29.572Z,-3.50
2022-12-15T12:02:24.993Z,-3.50
2022-12-15T12:05:23.942Z,-3.30
2022-12-15T12:08:01.648Z,-3.20
2022-12-15T12:10:31.333Z,-3.10
2022-12-15T12:13:28.301Z,-3.10
2022-12-15T12:16:20.885Z,-3.10
2022-12-15T12:19:09.866Z,-3.00
2022-12-15T12:24:41.652Z,-2.90
2022-12-15T12:27:31.863Z,-2.90
2022-12-15T12:30:22.447Z,-2.80
2022-12-15T12:32:53.429Z,-2.70
2022-12-15T12:35:39.615Z,-2.60
2022-12-15T12:38:10.186Z,-2.60
2022-12-15T12:40:42.973Z,-2.70
2022-12-15T12:43:14.142Z,-2.70
2022-12-15T12:46:10.033Z,-2.70
2022-12-15T12:49:33.280Z,-2.60
2022-12-15T12:52:04.180Z,-2.40
2022-12-15T12:54:36.985Z,-2.40
2022-12-15T12:57:30.597Z,-2.40
2022-12-15T13:00:01.551Z,-2.30
2022-12-15T13:02:29.263Z,-2.40
2022-12-15T13:05:00.437Z,-2.40
2022-12-15T13:07:40.270Z,-2.40
2022-12-15T13:10:16.608Z,-2.30
2022-12-15T13:12:51.696Z,-2.20
2022-12-15T13:15:29.938Z,-2.20
2022-12-15T13:18:07.518Z,-2.20
2022-12-15T13:20:38.105Z,-2.20
2022-12-15T13:23:36.961Z,-2.20
2022-12-15T13:26:04.013Z,-2.30
2022-12-15T13:28:36.504Z,-2.40
2022-12-15T13:31:19.086Z,-2.40
2022-12-15T13:33:55.690Z,-2.40
2022-12-15T13:36:38.099Z,-2.40
2022-12-15T13:39:19.001Z,-2.40
2022-12-15T13:44:44.118Z,-2.40
2022-12-15T13:47:27.934Z,-2.50
2022-12-15T13:50:19.543Z,-2.50
2022-12-15T13:53:17.905Z,-2.60
2022-12-15T13:55:46.214Z,-2.60
2022-12-15T13:58:20.262Z,-2.60
2022-12-15T14:01:01.036Z,-2.70
2022-12-15T14:03:27.893Z,-2.70
2022-12-15T14:05:58.848Z,-2.70
2022-12-15T14:08:28.484Z,-2.70
2022-12-15T14:11:06.922Z,-2.70
2022-12-15T14:13:38.380Z,-2.80
2022-12-15T14:16:24.718Z,-2.80
2022-12-15T14:19:17.320Z,-2.90
2022-12-15T14:21:56.005Z,-3.00
2022-12-15T14:24:38.552Z,-3.00
2022-12-15T14:27:06.370Z,-3.10
2022-12-15T14:29:33.117Z,-3.10
2022-12-15T14:32:00.559Z,-3.20
2022-12-15T14:34:32.866Z,-3.20
2022-12-15T14:37:03.924Z,-3.20
2022-12-15T14:39:51.233Z,-3.40
2022-12-15T14:42:24.926Z,-3.40
2022-12-15T14:44:57.425Z,-3.40
2022-12-15T14:47:31.424Z,-3.40
2022-12-15T14:50:01.082Z,-3.50
2022-12-15T14:52:34.906Z,-3.50
2022-12-15T14:55:31.121Z,-3.60
2022-12-15T14:57:58.121Z,-3.70
2022-12-15T15:00:26.768Z,-3.80
2022-12-15T15:03:04.592Z,-4.50
2022-12-15T15:03:11.857Z,-2.30
2022-12-15T15:03:16.208Z,-2.90
2022-12-15T15:03:34.345Z,-3.80
2022-12-15T15:06:07.006Z,-3.90
2022-12-15T15:08:41.516Z,-3.90
2022-12-15T15:11:33.844Z,-4.00
2022-12-15T15:14:05.795Z,-4.10
2022-12-15T15:16:32.617Z,-4.20
2022-12-15T15:19:01.857Z,-4.20
2022-12-15T15:21:30.820Z,-4.30
2022-12-15T15:24:03.194Z,-4.30
2022-12-15T15:26:31.017Z,-4.40
2022-12-15T15:28:58.460Z,-4.40
2022-12-15T15:31:25.287Z,-4.40
2022-12-15T15:33:53.004Z,-4.40
2022-12-15T15:36:21.507Z,-4.50
2022-12-15T15:38:48.429Z,-4.50
2022-12-15T15:41:19.510Z,-4.50
2022-12-15T15:43:47.315Z,-4.50
2022-12-15T15:46:21.231Z,-4.60
2022-12-15T15:48:51.495Z,-4.70
2022-12-15T15:51:19.289Z,-4.70
2022-12-15T15:53:46.485Z,-4.60
2022-12-15T15:56:16.213Z,-4.70
2022-12-15T15:58:46.546Z,-4.70
2022-12-15T16:01:13.854Z,-4.80
2022-12-15T16:03:41.804Z,-4.80
2022-12-15T16:06:18.543Z,-4.90
2022-12-15T16:08:47.214Z,-5.00
2022-12-15T16:11:14.077Z,-4.90
2022-12-15T16:13:40.910Z,-4.80
2022-12-15T16:16:18.256Z,-4.80
2022-12-15T16:18:45.951Z,-4.70
2022-12-15T16:21:16.522Z,-4.60
2022-12-15T16:23:45.963Z,-4.60
2022-12-15T16:26:21.159Z,-4.50
2022-12-15T16:28:48.152Z,-4.60
2022-12-15T16:31:24.480Z,-4.70
2022-12-15T16:33:51.435Z,-4.70
2022-12-15T16:36:18.250Z,-4.80
2022-12-15T16:38:45.044Z,-4.80
2022-12-15T16:41:16.006Z,-4.90
2022-12-15T16:43:48.097Z,-5.00
2022-12-15T16:46:15.958Z,-5.00
2022-12-15T16:48:43.299Z,-5.00
2022-12-15T16:51:28.900Z,-5.00
2022-12-15T16:53:55.787Z,-4.90
2022-12-15T16:56:22.584Z,-5.00
2022-12-15T16:58:57.555Z,-5.00
2022-12-15T17:01:40.036Z,-4.90
2022-12-15T17:04:07.339Z,-5.00
2022-12-15T17:06:34.166Z,-4.90
2022-12-15T17:09:01.350Z,-4.90
2022-12-15T17:11:29.149Z,-4.90
2022-12-15T17:14:00.842Z,-5.00
2022-12-15T17:16:29.397Z,-5.00
2022-12-15T17:18:56.535Z,-5.00
2022-12-15T17:21:33.144Z,-5.20
2022-12-15T17:24:05.220Z,-5.20
2022-12-15T17:26:36.369Z,-5.20
2022-12-15T17:29:25.147Z,-5.20
2022-12-15T17:31:52.457Z,-5.30
2022-12-15T17:34:30.134Z,-5.20
2022-12-15T17:36:59.315Z,-5.30
2022-12-15T17:39:26.768Z,-5.30
2022-12-15T17:42:02.675Z,-5.40
2022-12-15T17:44:34.286Z,-5.50
2022-12-15T17:47:03.239Z,-5.60
2022-12-15T17:49:34.974Z,-5.60
2022-12-15T17:52:05.261Z,-5.60
2022-12-15T17:54:32.230Z,-5.70
2022-12-15T17:56:58.997Z,-5.70
2022-12-15T17:59:25.876Z,-5.70
2022-12-15T18:01:52.781Z,-5.70
2022-12-15T18:04:19.788Z,-5.70
2022-12-15T18:06:46.700Z,-5.60
2022-12-15T18:09:17.325Z,-5.70
2022-12-15T18:11:46.801Z,-5.70
2022-12-15T18:14:19.281Z,-5.80
2022-12-15T18:16:46.907Z,-5.90
2022-12-15T18:19:14.020Z,-6.00
2022-12-15T18:21:41.431Z,-5.90
2022-12-15T18:24:14.010Z,-6.00
2022-12-15T18:26:40.841Z,-6.00
2022-12-15T18:29:17.848Z,-6.00
2022-12-15T18:31:47.109Z,-6.00
2022-12-15T18:34:17.403Z,-6.10
2022-12-15T18:36:44.914Z,-6.20
2022-12-15T18:39:19.827Z,-6.10
2022-12-15T18:41:47.016Z,-6.10
2022-12-15T18:44:27.300Z,-6.10
2022-12-15T18:46:55.330Z,-6.10
2022-12-15T18:49:23.107Z,-6.10
2022-12-15T18:51:50.464Z,-6.10
2022-12-15T18:54:22.382Z,-6.10
2022-12-15T18:56:49.486Z,-6.20
2022-12-15T18:59:17.748Z,-6.20
2022-12-15T19:01:46.545Z,-6.20
2022-12-15T19:04:14.181Z,-6.30
2022-12-15T19:06:41.210Z,-6.30
2022-12-15T19:09:14.709Z,-6.30
2022-12-15T19:12:01.710Z,-6.30
2022-12-15T19:14:40.639Z,-6.40
2022-12-15T19:17:29.767Z,-6.50
2022-12-15T19:20:15.341Z,-6.60
2022-12-15T19:22:42.936Z,-6.60
2022-12-15T19:25:26.407Z,-6.60
2022-12-15T19:27:58.913Z,-6.70
2022-12-15T19:30:28.570Z,-6.60
2022-12-15T19:32:55.597Z,-6.60
2022-12-15T19:35:22.735Z,-6.70
2022-12-15T19:37:50.058Z,-6.80
2022-12-15T19:40:22.092Z,-6.60
2022-12-15T19:42:49.695Z,-6.70
2022-12-15T19:45:18.942Z,-6.70
2022-12-15T19:47:45.775Z,-6.70
2022-12-15T19:50:25.055Z,-6.70
2022-12-15T19:53:01.881Z,-6.70
2022-12-15T19:55:35.125Z,-6.70
2022-12-15T19:58:27.106Z,-6.80
2022-12-15T20:01:00.645Z,-6.80
2022-12-15T20:03:29.407Z,-6.90
2022-12-15T20:05:57.742Z,-6.90
2022-12-15T20:08:27.536Z,-6.90
2022-12-15T20:10:55.356Z,-7.00
2022-12-15T20:13:23.279Z,-7.00
2022-12-15T20:15:50.038Z,-7.10
2022-12-15T20:18:16.811Z,-7.10
2022-12-15T20:20:46.279Z,-7.20
2022-12-15T20:23:18.133Z,-7.20
2022-12-15T20:25:45.447Z,-7.20
2022-12-15T20:28:25.869Z,-7.10
2022-12-15T20:30:53.618Z,-7.10
2022-12-15T20:33:20.926Z,-7.20
2022-12-15T20:35:49.751Z,-7.30
2022-12-15T20:38:23.265Z,-7.30
2022-12-15T20:40:50.476Z,-7.40
2022-12-15T20:43:20.439Z,-7.40
2022-12-15T20:45:53.268Z,-7.40
2022-12-15T20:48:25.333Z,-7.30
2022-12-15T20:50:52.772Z,-7.30
2022-12-15T20:53:25.813Z,-7.40
2022-12-15T20:55:55.172Z,-7.40
2022-12-15T20:58:22.459Z,-7.50
2022-12-15T21:00:51.842Z,-7.60
2022-12-15T21:03:31.107Z,-7.60
2022-12-15T21:05:59.530Z,-7.50
2022-12-15T21:08:29.744Z,-7.50
2022-12-15T21:11:10.599Z,-7.40
2022-12-15T21:13:37.440Z,-7.50
2022-12-15T21:16:04.456Z,-7.50
2022-12-15T21:21:24.207Z,-7.50
2022-12-15T21:23:51.092Z,-7.50
2022-12-15T21:26:21.187Z,-7.60
2022-12-15T21:28:49.407Z,-7.60
2022-12-15T21:31:18.058Z,-7.50
2022-12-15T21:33:46.529Z,-7.60
2022-12-15T21:36:15.593Z,-7.70
2022-12-15T21:38:44.376Z,-7.60
2022-12-15T21:41:17.512Z,-7.60
2022-12-15T21:43:44.459Z,-7.70
2022-12-15T21:46:17.993Z,-7.70
2022-12-15T21:49:03.749Z,-7.70
2022-12-15T21:51:35.072Z,-7.70
2022-12-15T21:54:02.305Z,-7.60
2022-12-15T21:56:29.226Z,-7.60
2022-12-15T21:58:56.630Z,-7.60
2022-12-15T22:01:28.102Z,-7.60
2022-12-15T22:03:57.511Z,-7.70
2022-12-15T22:06:27.239Z,-7.70
2022-12-15T22:09:00.944Z,-7.70
2022-12-15T22:11:30.325Z,-7.80
2022-12-15T22:14:00.995Z,-7.80
2022-12-15T22:16:28.318Z,-7.90
2022-12-15T22:18:57.889Z,-7.90
2022-12-15T22:21:25.804Z,-7.80
2022-12-15T22:23:52.746Z,-7.80
2022-12-15T22:26:32.272Z,-7.80
2022-12-15T22:29:01.061Z,-7.80
2022-12-15T22:31:28.306Z,-7.80
2022-12-15T22:33:55.214Z,-7.80
2022-12-15T22:36:22.034Z,-7.90
2022-12-15T22:38:48.855Z,-7.90
2022-12-15T22:41:24.404Z,-7.90
2022-12-15T22:43:56.437Z,-7.90
2022-12-15T22:46:25.108Z,-8.00
2022-12-15T22:48:54.797Z,-8.00
2022-12-15T22:51:21.927Z,-8.00
2022-12-15T22:53:48.805Z,-8.00
2022-12-15T22:56:29.165Z,-8.00
2022-12-15T22:59:01.297Z,-8.20
2022-12-15T23:01:28.311Z,-8.20
2022-12-15T23:03:55.767Z,-8.30
2022-12-15T23:06:23.599Z,-8.20
2022-12-15T23:08:55.994Z,-8.20
2022-12-15T23:11:39.059Z,-8.10
2022-12-15T23:14:08.825Z,-8.20
2022-12-15T23:16:36.236Z,-8.20
2022-12-15T23:19:03.984Z,-8.20
2022-12-15T23:21:32.280Z,-8.20
2022-12-15T23:23:59.278Z,-8.20
2022-12-15T23:26:26.976Z,-8.10
2022-12-15T23:28:55.229Z,-8.10
2022-12-15T23:31:22.628Z,-8.20
2022-12-15T23:33:50.006Z,-8.20
2022-12-15T23:36:19.682Z,-8.20
2022-12-15T23:38:47.581Z,-8.20
2022-12-15T23:41:16.743Z,-8.20
2022-12-15T23:43:43.882Z,-8.20
2022-12-15T23:46:10.734Z,-8.20
2022-12-15T23:48:39.560Z,-8.10
2022-12-15T23:51:09.396Z,-8.10
2022-12-15T23:53:38.020Z,-8.10
2022-12-15T23:56:08.083Z,-8.20
2022-12-15T23:58:35.200Z,-8.20
